Terminal Aerodrome Forecast
Issued by NWS Pendleton, OR

Home | Current Version | Previous Version | Text Only | Print | Product List | Glossary On
Versions: 1 2 3 4 5 6 7 8 9 10 11 12 13 14 15
000
FTUS46 KPDT 281120
TAFPDT
TAF
KPDT 281120Z 2812/2912 14006KT P6SM SCT250
     FM281500 VRB04KT P6SM SCT250
     FM282000 29012KT P6SM SCT250
     FM290300 26015G25KT P6SM SCT100 BKN200
     FM290600 26013G20KT P6SM BKN080 OVC140
     FM290900 26013KT P6SM VCSH OVC070=

USA.gov is the U.S. government's official web portal to all federal, state and local government web resources and services.